sensor_id;sensor_type;location;lat;lon;timestamp;P1;durP1;ratioP1;P2;durP2;ratioP2
75358;SDS011;64046;51.978;5.934;2023-08-01T00:01:08;4.53;;;3.40;;
75358;SDS011;64046;51.978;5.934;2023-08-01T00:03:43;6.05;;;3.50;;
75358;SDS011;64046;51.978;5.934;2023-08-01T00:06:19;7.25;;;3.92;;
75358;SDS011;64046;51.978;5.934;2023-08-01T00:08:52;5.45;;;3.45;;
75358;SDS011;64046;51.978;5.934;2023-08-01T00:11:33;7.53;;;4.30;;
75358;SDS011;64046;51.978;5.934;2023-08-01T00:14:03;7.53;;;4.30;;
75358;SDS011;64046;51.978;5.934;2023-08-01T00:16:48;8.20;;;4.75;;
75358;SDS011;64046;51.978;5.934;2023-08-01T00:19:23;7.00;;;4.65;;
75358;SDS011;64046;51.978;5.934;2023-08-01T00:21:59;8.57;;;4.18;;
75358;SDS011;64046;51.978;5.934;2023-08-01T00:24:32;8.07;;;4.63;;
75358;SDS011;64046;51.978;5.934;2023-08-01T00:27:04;8.13;;;3.95;;
75358;SDS011;64046;51.978;5.934;2023-08-01T00:29:39;6.07;;;4.00;;
75358;SDS011;64046;51.978;5.934;2023-08-01T00:32:10;6.35;;;3.70;;
75358;SDS011;64046;51.978;5.934;2023-08-01T00:34:42;4.90;;;2.97;;
75358;SDS011;64046;51.978;5.934;2023-08-01T00:37:18;9.05;;;3.35;;
75358;SDS011;64046;51.978;5.934;2023-08-01T00:39:50;4.40;;;2.60;;
75358;SDS011;64046;51.978;5.934;2023-08-01T00:42:25;4.90;;;2.58;;
75358;SDS011;64046;51.978;5.934;2023-08-01T00:45:00;5.25;;;3.08;;
75358;SDS011;64046;51.978;5.934;2023-08-01T00:47:29;6.85;;;2.92;;
75358;SDS011;64046;51.978;5.934;2023-08-01T00:50:01;4.78;;;2.30;;
75358;SDS011;64046;51.978;5.934;2023-08-01T00:52:34;5.18;;;2.40;;
75358;SDS011;64046;51.978;5.934;2023-08-01T00:55:06;4.65;;;2.38;;
75358;SDS011;64046;51.978;5.934;2023-08-01T00:57:38;4.53;;;2.65;;
75358;SDS011;64046;51.978;5.934;2023-08-01T01:00:15;6.18;;;2.83;;
75358;SDS011;64046;51.978;5.934;2023-08-01T01:02:48;5.47;;;3.20;;
75358;SDS011;64046;51.978;5.934;2023-08-01T01:05:22;6.07;;;2.72;;
75358;SDS011;64046;51.978;5.934;2023-08-01T01:08:03;5.65;;;2.78;;
75358;SDS011;64046;51.978;5.934;2023-08-01T01:10:38;5.68;;;3.05;;
75358;SDS011;64046;51.978;5.934;2023-08-01T01:13:11;6.97;;;3.03;;
75358;SDS011;64046;51.978;5.934;2023-08-01T01:15:48;5.35;;;3.15;;
75358;SDS011;64046;51.978;5.934;2023-08-01T01:18:33;7.22;;;2.67;;
75358;SDS011;64046;51.978;5.934;2023-08-01T01:21:08;5.05;;;2.83;;
75358;SDS011;64046;51.978;5.934;2023-08-01T01:23:41;6.07;;;3.33;;
75358;SDS011;64046;51.978;5.934;2023-08-01T01:26:11;6.25;;;2.97;;
75358;SDS011;64046;51.978;5.934;2023-08-01T01:28:48;6.20;;;2.70;;
75358;SDS011;64046;51.978;5.934;2023-08-01T01:31:21;8.65;;;3.10;;
75358;SDS011;64046;51.978;5.934;2023-08-01T01:33:59;5.38;;;3.08;;
75358;SDS011;64046;51.978;5.934;2023-08-01T01:36:35;4.95;;;2.90;;
75358;SDS011;64046;51.978;5.934;2023-08-01T01:39:06;6.00;;;2.75;;
75358;SDS011;64046;51.978;5.934;2023-08-01T01:41:39;6.75;;;2.83;;
75358;SDS011;64046;51.978;5.934;2023-08-01T01:46:56;7.93;;;2.78;;
75358;SDS011;64046;51.978;5.934;2023-08-01T01:49:28;9.00;;;3.63;;
75358;SDS011;64046;51.978;5.934;2023-08-01T01:52:01;9.50;;;4.00;;
75358;SDS011;64046;51.978;5.934;2023-08-01T01:54:34;6.65;;;3.83;;
75358;SDS011;64046;51.978;5.934;2023-08-01T01:57:09;10.07;;;3.65;;
75358;SDS011;64046;51.978;5.934;2023-08-01T01:59:39;6.78;;;3.85;;
75358;SDS011;64046;51.978;5.934;2023-08-01T02:02:13;7.20;;;3.70;;
75358;SDS011;64046;51.978;5.934;2023-08-01T02:04:45;6.10;;;3.58;;
75358;SDS011;64046;51.978;5.934;2023-08-01T02:07:22;8.50;;;3.67;;
75358;SDS011;64046;51.978;5.934;2023-08-01T02:09:52;7.07;;;3.40;;
75358;SDS011;64046;51.978;5.934;2023-08-01T02:12:22;6.45;;;3.50;;
75358;SDS011;64046;51.978;5.934;2023-08-01T02:14:59;6.40;;;3.92;;
75358;SDS011;64046;51.978;5.934;2023-08-01T02:17:28;7.82;;;4.20;;
75358;SDS011;64046;51.978;5.934;2023-08-01T02:20:04;7.47;;;3.90;;
75358;SDS011;64046;51.978;5.934;2023-08-01T02:22:38;11.00;;;3.58;;
75358;SDS011;64046;51.978;5.934;2023-08-01T02:25:10;7.75;;;3.33;;
75358;SDS011;64046;51.978;5.934;2023-08-01T02:27:41;8.00;;;4.45;;
75358;SDS011;64046;51.978;5.934;2023-08-01T02:30:18;9.60;;;4.53;;
75358;SDS011;64046;51.978;5.934;2023-08-01T02:32:55;9.32;;;3.22;;
75358;SDS011;64046;51.978;5.934;2023-08-01T02:35:24;8.05;;;4.18;;
75358;SDS011;64046;51.978;5.934;2023-08-01T02:37:56;7.80;;;3.40;;
75358;SDS011;64046;51.978;5.934;2023-08-01T02:40:31;9.00;;;3.45;;
75358;SDS011;64046;51.978;5.934;2023-08-01T02:43:01;9.65;;;3.85;;
75358;SDS011;64046;51.978;5.934;2023-08-01T02:45:30;11.40;;;3.45;;
75358;SDS011;64046;51.978;5.934;2023-08-01T02:48:00;8.02;;;3.53;;
75358;SDS011;64046;51.978;5.934;2023-08-01T02:50:31;9.98;;;3.38;;
75358;SDS011;64046;51.978;5.934;2023-08-01T02:53:04;8.68;;;4.32;;
75358;SDS011;64046;51.978;5.934;2023-08-01T02:55:40;10.82;;;3.80;;
75358;SDS011;64046;51.978;5.934;2023-08-01T02:58:12;11.40;;;4.03;;
75358;SDS011;64046;51.978;5.934;2023-08-01T03:00:44;6.97;;;3.30;;
75358;SDS011;64046;51.978;5.934;2023-08-01T03:03:14;11.00;;;4.63;;
75358;SDS011;64046;51.978;5.934;2023-08-01T03:05:44;7.50;;;3.65;;
75358;SDS011;64046;51.978;5.934;2023-08-01T03:08:19;9.80;;;4.20;;
75358;SDS011;64046;51.978;5.934;2023-08-01T03:10:51;6.88;;;3.90;;
75358;SDS011;64046;51.978;5.934;2023-08-01T03:13:30;9.13;;;4.10;;
75358;SDS011;64046;51.978;5.934;2023-08-01T03:16:03;11.73;;;4.18;;
75358;SDS011;64046;51.978;5.934;2023-08-01T03:18:37;9.70;;;4.25;;
75358;SDS011;64046;51.978;5.934;2023-08-01T03:21:08;12.52;;;4.68;;
75358;SDS011;64046;51.978;5.934;2023-08-01T03:23:42;8.20;;;4.40;;
75358;SDS011;64046;51.978;5.934;2023-08-01T03:26:16;9.88;;;3.92;;
75358;SDS011;64046;51.978;5.934;2023-08-01T03:28:51;13.75;;;4.25;;
75358;SDS011;64046;51.978;5.934;2023-08-01T03:31:20;10.88;;;4.97;;
75358;SDS011;64046;51.978;5.934;2023-08-01T03:33:52;14.75;;;4.75;;
75358;SDS011;64046;51.978;5.934;2023-08-01T03:36:24;8.90;;;4.63;;
75358;SDS011;64046;51.978;5.934;2023-08-01T03:39:00;9.45;;;4.15;;
75358;SDS011;64046;51.978;5.934;2023-08-01T03:41:42;14.15;;;3.97;;
75358;SDS011;64046;51.978;5.934;2023-08-01T03:44:14;10.43;;;4.45;;
75358;SDS011;64046;51.978;5.934;2023-08-01T03:46:49;11.32;;;4.35;;
75358;SDS011;64046;51.978;5.934;2023-08-01T03:49:22;9.70;;;4.10;;
75358;SDS011;64046;51.978;5.934;2023-08-01T03:51:53;10.27;;;3.92;;
75358;SDS011;64046;51.978;5.934;2023-08-01T03:54:31;13.02;;;4.43;;
75358;SDS011;64046;51.978;5.934;2023-08-01T03:57:05;12.82;;;5.28;;
75358;SDS011;64046;51.978;5.934;2023-08-01T03:59:36;10.95;;;4.35;;
75358;SDS011;64046;51.978;5.934;2023-08-01T04:02:11;16.35;;;5.35;;
75358;SDS011;64046;51.978;5.934;2023-08-01T04:04:46;11.27;;;4.35;;
75358;SDS011;64046;51.978;5.934;2023-08-01T04:07:18;9.65;;;3.88;;
75358;SDS011;64046;51.978;5.934;2023-08-01T04:09:52;12.23;;;4.43;;
75358;SDS011;64046;51.978;5.934;2023-08-01T04:12:25;13.75;;;4.32;;
75358;SDS011;64046;51.978;5.934;2023-08-01T04:14:57;10.38;;;4.10;;
75358;SDS011;64046;51.978;5.934;2023-08-01T04:17:27;9.48;;;3.42;;
75358;SDS011;64046;51.978;5.934;2023-08-01T04:19:59;11.00;;;4.40;;
75358;SDS011;64046;51.978;5.934;2023-08-01T04:22:31;19.65;;;5.15;;
75358;SDS011;64046;51.978;5.934;2023-08-01T04:25:06;14.07;;;4.07;;
75358;SDS011;64046;51.978;5.934;2023-08-01T04:27:37;14.15;;;4.75;;
75358;SDS011;64046;51.978;5.934;2023-08-01T04:30:11;12.95;;;5.05;;
75358;SDS011;64046;51.978;5.934;2023-08-01T04:32:44;12.68;;;5.00;;
75358;SDS011;64046;51.978;5.934;2023-08-01T04:35:18;12.68;;;5.00;;
75358;SDS011;64046;51.978;5.934;2023-08-01T04:37:50;12.43;;;4.57;;
75358;SDS011;64046;51.978;5.934;2023-08-01T04:40:30;12.13;;;4.38;;
75358;SDS011;64046;51.978;5.934;2023-08-01T04:45:41;10.25;;;4.38;;
75358;SDS011;64046;51.978;5.934;2023-08-01T04:48:12;13.10;;;4.80;;
75358;SDS011;64046;51.978;5.934;2023-08-01T04:50:41;14.52;;;4.53;;
75358;SDS011;64046;51.978;5.934;2023-08-01T04:53:15;14.10;;;5.20;;
75358;SDS011;64046;51.978;5.934;2023-08-01T04:55:47;13.80;;;4.93;;
75358;SDS011;64046;51.978;5.934;2023-08-01T04:58:20;11.68;;;3.63;;
75358;SDS011;64046;51.978;5.934;2023-08-01T05:00:52;9.98;;;4.15;;
75358;SDS011;64046;51.978;5.934;2023-08-01T05:03:22;10.68;;;4.45;;
75358;SDS011;64046;51.978;5.934;2023-08-01T05:05:51;13.18;;;4.60;;
75358;SDS011;64046;51.978;5.934;2023-08-01T05:08:21;9.93;;;4.22;;
75358;SDS011;64046;51.978;5.934;2023-08-01T05:10:54;10.70;;;3.67;;
75358;SDS011;64046;51.978;5.934;2023-08-01T05:13:24;14.07;;;3.80;;
75358;SDS011;64046;51.978;5.934;2023-08-01T05:15:57;17.08;;;4.90;;
75358;SDS011;64046;51.978;5.934;2023-08-01T05:18:31;8.43;;;3.97;;
75358;SDS011;64046;51.978;5.934;2023-08-01T05:21:04;8.95;;;4.47;;
75358;SDS011;64046;51.978;5.934;2023-08-01T05:23:34;9.65;;;4.25;;
75358;SDS011;64046;51.978;5.934;2023-08-01T05:26:09;8.52;;;4.18;;
75358;SDS011;64046;51.978;5.934;2023-08-01T05:28:44;10.25;;;4.10;;
75358;SDS011;64046;51.978;5.934;2023-08-01T05:31:14;7.07;;;3.47;;
75358;SDS011;64046;51.978;5.934;2023-08-01T05:33:45;11.63;;;5.00;;
75358;SDS011;64046;51.978;5.934;2023-08-01T05:36:16;13.27;;;4.38;;
75358;SDS011;64046;51.978;5.934;2023-08-01T05:38:54;8.88;;;4.20;;
75358;SDS011;64046;51.978;5.934;2023-08-01T05:41:26;18.27;;;5.55;;
75358;SDS011;64046;51.978;5.934;2023-08-01T05:44:02;10.18;;;4.18;;
75358;SDS011;64046;51.978;5.934;2023-08-01T05:46:39;11.75;;;4.20;;
75358;SDS011;64046;51.978;5.934;2023-08-01T05:49:12;11.80;;;4.07;;
75358;SDS011;64046;51.978;5.934;2023-08-01T05:51:46;15.50;;;4.47;;
75358;SDS011;64046;51.978;5.934;2023-08-01T05:54:20;12.82;;;4.50;;
75358;SDS011;64046;51.978;5.934;2023-08-01T05:56:55;11.02;;;4.80;;
75358;SDS011;64046;51.978;5.934;2023-08-01T05:59:29;12.98;;;5.10;;
75358;SDS011;64046;51.978;5.934;2023-08-01T06:02:01;12.02;;;5.10;;
75358;SDS011;64046;51.978;5.934;2023-08-01T06:04:33;8.38;;;4.93;;
75358;SDS011;64046;51.978;5.934;2023-08-01T06:07:06;8.43;;;4.18;;
75358;SDS011;64046;51.978;5.934;2023-08-01T06:12:26;18.17;;;5.45;;
75358;SDS011;64046;51.978;5.934;2023-08-01T06:15:00;13.55;;;5.20;;
75358;SDS011;64046;51.978;5.934;2023-08-01T06:17:32;17.98;;;5.47;;
75358;SDS011;64046;51.978;5.934;2023-08-01T06:20:07;13.65;;;5.85;;
75358;SDS011;64046;51.978;5.934;2023-08-01T06:22:41;10.73;;;4.60;;
75358;SDS011;64046;51.978;5.934;2023-08-01T06:25:17;11.45;;;4.53;;
75358;SDS011;64046;51.978;5.934;2023-08-01T06:27:56;12.38;;;4.15;;
75358;SDS011;64046;51.978;5.934;2023-08-01T06:30:35;15.15;;;4.97;;
75358;SDS011;64046;51.978;5.934;2023-08-01T06:33:07;13.98;;;4.82;;
75358;SDS011;64046;51.978;5.934;2023-08-01T06:35:38;11.90;;;4.85;;
75358;SDS011;64046;51.978;5.934;2023-08-01T06:38:11;13.48;;;5.20;;
75358;SDS011;64046;51.978;5.934;2023-08-01T06:40:44;15.63;;;5.05;;
75358;SDS011;64046;51.978;5.934;2023-08-01T06:43:23;12.20;;;4.43;;
75358;SDS011;64046;51.978;5.934;2023-08-01T06:45:53;13.43;;;4.90;;
75358;SDS011;64046;51.978;5.934;2023-08-01T06:48:25;13.70;;;4.63;;
75358;SDS011;64046;51.978;5.934;2023-08-01T06:50:55;13.93;;;4.55;;
75358;SDS011;64046;51.978;5.934;2023-08-01T06:53:28;15.13;;;4.22;;
75358;SDS011;64046;51.978;5.934;2023-08-01T06:55:58;11.60;;;4.35;;
75358;SDS011;64046;51.978;5.934;2023-08-01T06:58:32;10.88;;;3.83;;
75358;SDS011;64046;51.978;5.934;2023-08-01T07:01:14;13.30;;;4.07;;
75358;SDS011;64046;51.978;5.934;2023-08-01T07:03:48;15.63;;;5.18;;
75358;SDS011;64046;51.978;5.934;2023-08-01T07:06:22;13.82;;;4.15;;
75358;SDS011;64046;51.978;5.934;2023-08-01T07:08:54;8.98;;;3.60;;
75358;SDS011;64046;51.978;5.934;2023-08-01T07:11:30;14.88;;;4.57;;
75358;SDS011;64046;51.978;5.934;2023-08-01T07:14:05;15.35;;;3.97;;
75358;SDS011;64046;51.978;5.934;2023-08-01T07:16:39;12.65;;;4.22;;
75358;SDS011;64046;51.978;5.934;2023-08-01T07:19:08;9.35;;;3.00;;
75358;SDS011;64046;51.978;5.934;2023-08-01T07:21:40;10.65;;;4.57;;
75358;SDS011;64046;51.978;5.934;2023-08-01T07:24:10;17.25;;;3.88;;
75358;SDS011;64046;51.978;5.934;2023-08-01T07:26:44;14.90;;;3.47;;
75358;SDS011;64046;51.978;5.934;2023-08-01T07:29:23;11.68;;;4.03;;
75358;SDS011;64046;51.978;5.934;2023-08-01T07:31:58;10.40;;;3.30;;
75358;SDS011;64046;51.978;5.934;2023-08-01T07:34:29;11.18;;;3.60;;
75358;SDS011;64046;51.978;5.934;2023-08-01T07:37:02;10.18;;;3.45;;
75358;SDS011;64046;51.978;5.934;2023-08-01T07:39:37;12.32;;;3.35;;
75358;SDS011;64046;51.978;5.934;2023-08-01T07:42:08;9.13;;;3.40;;
75358;SDS011;64046;51.978;5.934;2023-08-01T07:44:49;8.27;;;2.80;;
75358;SDS011;64046;51.978;5.934;2023-08-01T07:47:20;9.75;;;3.25;;
75358;SDS011;64046;51.978;5.934;2023-08-01T07:49:50;8.90;;;2.72;;
75358;SDS011;64046;51.978;5.934;2023-08-01T07:52:20;9.18;;;2.58;;
75358;SDS011;64046;51.978;5.934;2023-08-01T07:54:51;11.27;;;3.10;;
75358;SDS011;64046;51.978;5.934;2023-08-01T07:57:23;11.73;;;3.05;;
75358;SDS011;64046;51.978;5.934;2023-08-01T07:59:57;9.30;;;2.75;;
75358;SDS011;64046;51.978;5.934;2023-08-01T08:02:44;7.07;;;2.60;;
75358;SDS011;64046;51.978;5.934;2023-08-01T08:05:16;8.32;;;2.85;;
75358;SDS011;64046;51.978;5.934;2023-08-01T08:07:52;10.35;;;3.22;;
75358;SDS011;64046;51.978;5.934;2023-08-01T08:10:27;8.32;;;2.50;;
75358;SDS011;64046;51.978;5.934;2023-08-01T08:13:09;7.80;;;2.70;;
75358;SDS011;64046;51.978;5.934;2023-08-01T08:15:43;7.45;;;2.90;;
75358;SDS011;64046;51.978;5.934;2023-08-01T08:18:36;12.98;;;3.72;;
75358;SDS011;64046;51.978;5.934;2023-08-01T08:21:18;9.20;;;2.15;;
75358;SDS011;64046;51.978;5.934;2023-08-01T08:23:52;9.35;;;3.05;;
75358;SDS011;64046;51.978;5.934;2023-08-01T08:26:28;7.75;;;2.35;;
75358;SDS011;64046;51.978;5.934;2023-08-01T08:29:20;7.97;;;2.85;;
75358;SDS011;64046;51.978;5.934;2023-08-01T08:32:01;8.25;;;2.67;;
75358;SDS011;64046;51.978;5.934;2023-08-01T08:34:33;7.47;;;2.97;;
75358;SDS011;64046;51.978;5.934;2023-08-01T08:37:05;9.60;;;3.00;;
75358;SDS011;64046;51.978;5.934;2023-08-01T08:39:40;10.13;;;3.33;;
75358;SDS011;64046;51.978;5.934;2023-08-01T08:42:16;8.75;;;2.90;;
75358;SDS011;64046;51.978;5.934;2023-08-01T08:44:50;8.90;;;3.25;;
75358;SDS011;64046;51.978;5.934;2023-08-01T08:47:27;10.60;;;3.15;;
75358;SDS011;64046;51.978;5.934;2023-08-01T08:50:05;9.25;;;3.10;;
75358;SDS011;64046;51.978;5.934;2023-08-01T08:52:38;6.72;;;2.35;;
75358;SDS011;64046;51.978;5.934;2023-08-01T08:55:09;8.57;;;2.95;;
75358;SDS011;64046;51.978;5.934;2023-08-01T08:57:44;8.32;;;2.80;;
75358;SDS011;64046;51.978;5.934;2023-08-01T09:00:19;8.30;;;2.85;;
75358;SDS011;64046;51.978;5.934;2023-08-01T09:03:00;5.40;;;2.33;;
75358;SDS011;64046;51.978;5.934;2023-08-01T09:05:31;5.18;;;2.28;;
75358;SDS011;64046;51.978;5.934;2023-08-01T09:08:13;7.80;;;2.60;;
75358;SDS011;64046;51.978;5.934;2023-08-01T09:10:48;6.60;;;2.55;;
75358;SDS011;64046;51.978;5.934;2023-08-01T09:13:18;6.55;;;2.47;;
75358;SDS011;64046;51.978;5.934;2023-08-01T09:15:51;7.72;;;2.40;;
75358;SDS011;64046;51.978;5.934;2023-08-01T09:18:45;10.48;;;2.70;;
75358;SDS011;64046;51.978;5.934;2023-08-01T09:21:19;4.63;;;2.30;;
75358;SDS011;64046;51.978;5.934;2023-08-01T09:23:57;7.22;;;2.40;;
75358;SDS011;64046;51.978;5.934;2023-08-01T09:26:37;7.90;;;2.47;;
75358;SDS011;64046;51.978;5.934;2023-08-01T09:29:15;8.48;;;1.90;;
75358;SDS011;64046;51.978;5.934;2023-08-01T09:31:45;5.90;;;1.92;;
75358;SDS011;64046;51.978;5.934;2023-08-01T09:34:22;6.20;;;2.55;;
75358;SDS011;64046;51.978;5.934;2023-08-01T09:36:59;5.32;;;2.08;;
75358;SDS011;64046;51.978;5.934;2023-08-01T09:39:37;5.93;;;2.00;;
75358;SDS011;64046;51.978;5.934;2023-08-01T09:42:13;4.50;;;1.77;;
75358;SDS011;64046;51.978;5.934;2023-08-01T09:44:49;8.35;;;1.92;;
75358;SDS011;64046;51.978;5.934;2023-08-01T09:47:35;6.85;;;2.35;;
75358;SDS011;64046;51.978;5.934;2023-08-01T09:50:19;4.47;;;1.52;;
75358;SDS011;64046;51.978;5.934;2023-08-01T09:52:51;6.93;;;1.98;;
75358;SDS011;64046;51.978;5.934;2023-08-01T09:55:24;4.72;;;1.65;;
75358;SDS011;64046;51.978;5.934;2023-08-01T09:58:00;6.82;;;1.90;;
75358;SDS011;64046;51.978;5.934;2023-08-01T10:00:32;9.30;;;2.20;;
75358;SDS011;64046;51.978;5.934;2023-08-01T10:03:03;9.75;;;2.20;;
75358;SDS011;64046;51.978;5.934;2023-08-01T10:05:39;18.38;;;2.50;;
75358;SDS011;64046;51.978;5.934;2023-08-01T10:08:11;5.45;;;2.25;;
75358;SDS011;64046;51.978;5.934;2023-08-01T10:10:44;5.63;;;2.30;;
75358;SDS011;64046;51.978;5.934;2023-08-01T10:13:18;6.45;;;2.88;;
75358;SDS011;64046;51.978;5.934;2023-08-01T10:15:53;5.68;;;2.30;;
75358;SDS011;64046;51.978;5.934;2023-08-01T10:18:32;8.15;;;2.65;;
75358;SDS011;64046;51.978;5.934;2023-08-01T10:21:10;6.57;;;2.17;;
75358;SDS011;64046;51.978;5.934;2023-08-01T10:23:50;6.50;;;2.05;;
75358;SDS011;64046;51.978;5.934;2023-08-01T10:26:20;6.45;;;2.33;;
75358;SDS011;64046;51.978;5.934;2023-08-01T10:28:52;9.48;;;2.20;;
75358;SDS011;64046;51.978;5.934;2023-08-01T10:31:32;6.30;;;2.20;;
75358;SDS011;64046;51.978;5.934;2023-08-01T10:34:12;8.65;;;2.13;;
75358;SDS011;64046;51.978;5.934;2023-08-01T10:36:56;3.38;;;1.88;;
75358;SDS011;64046;51.978;5.934;2023-08-01T10:39:32;8.23;;;2.78;;
75358;SDS011;64046;51.978;5.934;2023-08-01T10:42:06;5.43;;;1.63;;
75358;SDS011;64046;51.978;5.934;2023-08-01T10:44:44;4.45;;;1.80;;
75358;SDS011;64046;51.978;5.934;2023-08-01T10:47:24;8.65;;;1.50;;
75358;SDS011;64046;51.978;5.934;2023-08-01T10:49:57;4.55;;;1.33;;
75358;SDS011;64046;51.978;5.934;2023-08-01T10:52:36;6.35;;;1.80;;
75358;SDS011;64046;51.978;5.934;2023-08-01T10:55:15;8.18;;;2.00;;
75358;SDS011;64046;51.978;5.934;2023-08-01T10:57:49;5.68;;;1.95;;
75358;SDS011;64046;51.978;5.934;2023-08-01T11:00:28;8.15;;;2.08;;
75358;SDS011;64046;51.978;5.934;2023-08-01T11:03:10;9.40;;;2.15;;
75358;SDS011;64046;51.978;5.934;2023-08-01T11:05:58;6.65;;;2.65;;
75358;SDS011;64046;51.978;5.934;2023-08-01T11:08:42;5.85;;;2.35;;
75358;SDS011;64046;51.978;5.934;2023-08-01T11:11:12;7.75;;;2.22;;
75358;SDS011;64046;51.978;5.934;2023-08-01T11:13:49;9.63;;;2.83;;
75358;SDS011;64046;51.978;5.934;2023-08-01T11:16:27;8.45;;;2.35;;
75358;SDS011;64046;51.978;5.934;2023-08-01T11:18:57;7.00;;;2.55;;
75358;SDS011;64046;51.978;5.934;2023-08-01T11:21:30;4.82;;;2.10;;
75358;SDS011;64046;51.978;5.934;2023-08-01T11:24:08;5.05;;;2.08;;
75358;SDS011;64046;51.978;5.934;2023-08-01T11:26:41;10.63;;;2.40;;
75358;SDS011;64046;51.978;5.934;2023-08-01T11:29:14;5.88;;;1.98;;
75358;SDS011;64046;51.978;5.934;2023-08-01T11:31:52;7.68;;;2.20;;
75358;SDS011;64046;51.978;5.934;2023-08-01T11:34:28;6.38;;;2.65;;
75358;SDS011;64046;51.978;5.934;2023-08-01T11:37:12;5.53;;;2.10;;
75358;SDS011;64046;51.978;5.934;2023-08-01T11:39:48;5.70;;;2.08;;
75358;SDS011;64046;51.978;5.934;2023-08-01T11:42:19;5.82;;;2.03;;
75358;SDS011;64046;51.978;5.934;2023-08-01T11:44:52;9.02;;;2.05;;
75358;SDS011;64046;51.978;5.934;2023-08-01T11:47:26;3.63;;;1.73;;
75358;SDS011;64046;51.978;5.934;2023-08-01T11:50:00;6.15;;;2.90;;
75358;SDS011;64046;51.978;5.934;2023-08-01T11:52:35;7.07;;;2.20;;
75358;SDS011;64046;51.978;5.934;2023-08-01T11:55:17;6.97;;;1.75;;
75358;SDS011;64046;51.978;5.934;2023-08-01T11:57:52;8.90;;;1.92;;
75358;SDS011;64046;51.978;5.934;2023-08-01T12:00:23;6.10;;;1.77;;
75358;SDS011;64046;51.978;5.934;2023-08-01T12:03:04;5.53;;;2.90;;
75358;SDS011;64046;51.978;5.934;2023-08-01T12:05:43;6.38;;;2.13;;
75358;SDS011;64046;51.978;5.934;2023-08-01T12:08:15;5.38;;;2.13;;
75358;SDS011;64046;51.978;5.934;2023-08-01T12:10:48;4.00;;;1.95;;
75358;SDS011;64046;51.978;5.934;2023-08-01T12:13:19;6.85;;;2.20;;
75358;SDS011;64046;51.978;5.934;2023-08-01T12:15:52;6.25;;;1.88;;
75358;SDS011;64046;51.978;5.934;2023-08-01T12:18:26;4.13;;;1.52;;
75358;SDS011;64046;51.978;5.934;2023-08-01T12:21:06;4.15;;;1.63;;
75358;SDS011;64046;51.978;5.934;2023-08-01T12:23:36;9.15;;;1.88;;
75358;SDS011;64046;51.978;5.934;2023-08-01T12:26:11;5.38;;;1.73;;
75358;SDS011;64046;51.978;5.934;2023-08-01T12:28:43;6.30;;;2.10;;
75358;SDS011;64046;51.978;5.934;2023-08-01T12:31:15;5.07;;;2.00;;
75358;SDS011;64046;51.978;5.934;2023-08-01T12:33:46;9.65;;;2.00;;
75358;SDS011;64046;51.978;5.934;2023-08-01T12:36:20;8.65;;;1.90;;
75358;SDS011;64046;51.978;5.934;2023-08-01T12:38:53;4.47;;;1.65;;
75358;SDS011;64046;51.978;5.934;2023-08-01T12:41:25;6.78;;;2.08;;
75358;SDS011;64046;51.978;5.934;2023-08-01T12:43:56;4.75;;;1.90;;
75358;SDS011;64046;51.978;5.934;2023-08-01T12:46:46;10.05;;;2.30;;
75358;SDS011;64046;51.978;5.934;2023-08-01T12:49:18;7.45;;;1.77;;
75358;SDS011;64046;51.978;5.934;2023-08-01T12:51:53;9.50;;;2.30;;
75358;SDS011;64046;51.978;5.934;2023-08-01T12:54:25;6.63;;;2.15;;
75358;SDS011;64046;51.978;5.934;2023-08-01T12:57:02;5.05;;;2.10;;
75358;SDS011;64046;51.978;5.934;2023-08-01T12:59:37;4.90;;;2.00;;
75358;SDS011;64046;51.978;5.934;2023-08-01T13:02:15;9.15;;;2.42;;
75358;SDS011;64046;51.978;5.934;2023-08-01T13:04:44;8.07;;;2.80;;
75358;SDS011;64046;51.978;5.934;2023-08-01T13:07:20;6.32;;;1.88;;
75358;SDS011;64046;51.978;5.934;2023-08-01T13:09:50;7.35;;;2.63;;
75358;SDS011;64046;51.978;5.934;2023-08-01T13:12:24;6.22;;;1.95;;
75358;SDS011;64046;51.978;5.934;2023-08-01T13:15:02;8.25;;;2.15;;
75358;SDS011;64046;51.978;5.934;2023-08-01T13:17:35;6.43;;;2.20;;
75358;SDS011;64046;51.978;5.934;2023-08-01T13:20:05;4.82;;;2.10;;
75358;SDS011;64046;51.978;5.934;2023-08-01T13:22:36;6.25;;;2.03;;
75358;SDS011;64046;51.978;5.934;2023-08-01T13:25:09;10.82;;;2.70;;
75358;SDS011;64046;51.978;5.934;2023-08-01T13:27:47;6.05;;;1.98;;
75358;SDS011;64046;51.978;5.934;2023-08-01T13:30:18;10.73;;;2.35;;
75358;SDS011;64046;51.978;5.934;2023-08-01T13:32:49;6.68;;;2.53;;
75358;SDS011;64046;51.978;5.934;2023-08-01T13:35:20;8.75;;;2.35;;
75358;SDS011;64046;51.978;5.934;2023-08-01T13:37:50;10.52;;;1.90;;
75358;SDS011;64046;51.978;5.934;2023-08-01T13:40:19;9.30;;;2.50;;
75358;SDS011;64046;51.978;5.934;2023-08-01T13:42:53;8.45;;;2.67;;
75358;SDS011;64046;51.978;5.934;2023-08-01T13:45:25;7.60;;;2.20;;
75358;SDS011;64046;51.978;5.934;2023-08-01T13:47:59;3.67;;;1.80;;
75358;SDS011;64046;51.978;5.934;2023-08-01T13:50:33;3.50;;;1.77;;
75358;SDS011;64046;51.978;5.934;2023-08-01T13:53:03;7.78;;;2.15;;
75358;SDS011;64046;51.978;5.934;2023-08-01T13:55:39;5.30;;;2.10;;
75358;SDS011;64046;51.978;5.934;2023-08-01T13:58:19;5.20;;;1.80;;
75358;SDS011;64046;51.978;5.934;2023-08-01T14:00:53;7.80;;;2.10;;
75358;SDS011;64046;51.978;5.934;2023-08-01T14:03:34;5.43;;;1.83;;
75358;SDS011;64046;51.978;5.934;2023-08-01T14:06:13;8.10;;;2.10;;
75358;SDS011;64046;51.978;5.934;2023-08-01T14:08:45;6.82;;;1.92;;
75358;SDS011;64046;51.978;5.934;2023-08-01T14:11:21;5.15;;;1.60;;
75358;SDS011;64046;51.978;5.934;2023-08-01T14:13:53;8.90;;;1.90;;
75358;SDS011;64046;51.978;5.934;2023-08-01T14:16:28;8.43;;;1.75;;
75358;SDS011;64046;51.978;5.934;2023-08-01T14:18:58;5.18;;;1.73;;
75358;SDS011;64046;51.978;5.934;2023-08-01T14:21:30;5.32;;;1.67;;
75358;SDS011;64046;51.978;5.934;2023-08-01T14:24:01;8.70;;;1.65;;
75358;SDS011;64046;51.978;5.934;2023-08-01T14:26:30;6.72;;;1.50;;
75358;SDS011;64046;51.978;5.934;2023-08-01T14:29:06;6.38;;;2.03;;
75358;SDS011;64046;51.978;5.934;2023-08-01T14:31:35;9.27;;;2.08;;
75358;SDS011;64046;51.978;5.934;2023-08-01T14:34:09;7.65;;;1.77;;
75358;SDS011;64046;51.978;5.934;2023-08-01T14:36:40;6.65;;;1.95;;
75358;SDS011;64046;51.978;5.934;2023-08-01T14:39:19;4.85;;;1.73;;
75358;SDS011;64046;51.978;5.934;2023-08-01T14:41:51;4.25;;;1.65;;
75358;SDS011;64046;51.978;5.934;2023-08-01T14:44:30;5.82;;;1.60;;
75358;SDS011;64046;51.978;5.934;2023-08-01T14:47:02;5.57;;;2.05;;
75358;SDS011;64046;51.978;5.934;2023-08-01T14:49:31;4.57;;;1.80;;
75358;SDS011;64046;51.978;5.934;2023-08-01T14:52:01;7.28;;;1.73;;
75358;SDS011;64046;51.978;5.934;2023-08-01T14:54:35;5.47;;;1.77;;
75358;SDS011;64046;51.978;5.934;2023-08-01T14:57:07;5.38;;;1.80;;
75358;SDS011;64046;51.978;5.934;2023-08-01T14:59:48;6.35;;;2.03;;
75358;SDS011;64046;51.978;5.934;2023-08-01T15:02:26;4.25;;;1.65;;
75358;SDS011;64046;51.978;5.934;2023-08-01T15:04:58;5.30;;;2.13;;
75358;SDS011;64046;51.978;5.934;2023-08-01T15:07:33;7.03;;;2.33;;
75358;SDS011;64046;51.978;5.934;2023-08-01T15:10:12;8.02;;;1.90;;
75358;SDS011;64046;51.978;5.934;2023-08-01T15:12:44;5.28;;;2.00;;
75358;SDS011;64046;51.978;5.934;2023-08-01T15:15:16;7.85;;;1.73;;
75358;SDS011;64046;51.978;5.934;2023-08-01T15:17:47;7.97;;;1.92;;
75358;SDS011;64046;51.978;5.934;2023-08-01T15:20:18;5.60;;;1.65;;
75358;SDS011;64046;51.978;5.934;2023-08-01T15:22:50;9.15;;;2.45;;
75358;SDS011;64046;51.978;5.934;2023-08-01T15:25:23;8.10;;;1.85;;
75358;SDS011;64046;51.978;5.934;2023-08-01T15:27:53;7.60;;;2.58;;
75358;SDS011;64046;51.978;5.934;2023-08-01T15:30:31;8.98;;;2.47;;
75358;SDS011;64046;51.978;5.934;2023-08-01T15:33:00;8.15;;;2.08;;